Time;durP1;ratioP1;P1;durP2;ratioP2;P2;SDS_P1;SDS_P2;PMS_P1;PMS_P2;Temp;Humidity;BMP_temperature;BMP_pressure;BME280_temperature;BME280_humidity;BME280_pressure;Samples;Min_cycle;Max_cycle;Signal;HPM_P1;HPM_P2
2022/02/07 00:00:15;;;;;;;9.82;3.58;;;20.80;54.30;;;;;;5019363;28;20065;-67
2022/02/07 00:05:25;;;;;;;8.20;3.00;;;20.80;54.30;;;;;;5032297;28;20041;-67
2022/02/07 00:07:51;;;;;;;10.05;3.33;;;20.80;54.30;;;;;;4998312;28;20017;-67
2022/02/07 00:10:17;;;;;;;7.95;2.70;;;20.80;54.30;;;;;;4998355;28;20022;-67
2022/02/07 00:12:45;;;;;;;7.72;2.70;;;20.80;54.30;;;;;;5032446;28;20049;-67
2022/02/07 00:15:14;;;;;;;10.23;2.80;;;20.80;54.30;;;;;;5014848;28;20045;-67
2022/02/07 00:17:40;;;;;;;11.90;3.03;;;20.80;54.40;;;;;;4998743;28;20088;-67
2022/02/07 00:20:12;;;;;;;6.70;2.90;;;20.90;54.40;;;;;;5014560;28;20037;-67
2022/02/07 00:22:38;;;;;;;7.93;2.63;;;20.90;54.40;;;;;;5032090;28;20100;-67
2022/02/07 00:25:04;;;;;;;6.75;2.50;;;20.80;54.40;;;;;;5031940;28;20472;-67
2022/02/07 00:27:29;;;;;;;7.07;2.60;;;20.80;54.50;;;;;;5014570;28;20017;-67
2022/02/07 00:29:55;;;;;;;7.82;2.92;;;20.90;54.50;;;;;;5031904;28;20031;-67
2022/02/07 00:32:21;;;;;;;6.50;2.88;;;20.80;54.50;;;;;;5032007;28;20045;-67
2022/02/07 00:34:46;;;;;;;7.78;2.42;;;20.90;54.50;;;;;;5014566;28;20036;-67
2022/02/07 00:37:12;;;;;;;8.90;2.78;;;20.90;54.60;;;;;;5013968;28;20116;-67
2022/02/07 00:39:49;;;;;;;7.80;2.58;;;20.90;54.50;;;;;;5032142;28;20029;-67
2022/02/07 00:42:25;;;;;;;5.60;2.60;;;20.90;54.60;;;;;;5031833;28;20100;-67
2022/02/07 00:44:50;;;;;;;6.70;2.70;;;20.90;55.60;;;;;;5031965;28;20490;-67
2022/02/07 00:47:16;;;;;;;8.07;2.92;;;20.90;54.60;;;;;;5032080;28;20064;-67
2022/02/07 00:49:42;;;;;;;7.07;2.47;;;20.90;54.60;;;;;;4998017;28;20025;-67
2022/02/07 00:52:08;;;;;;;6.43;2.22;;;20.90;54.60;;;;;;4997511;28;20044;-67
2022/02/07 00:54:34;;;;;;;5.35;1.80;;;20.90;54.70;;;;;;5031954;28;20391;-67
2022/02/07 00:56:59;;;;;;;6.07;2.05;;;20.90;54.60;;;;;;5014234;28;20124;-67
2022/02/07 00:59:25;;;;;;;5.88;2.50;;;20.90;54.60;;;;;;5031654;28;20021;-67
2022/02/07 01:01:50;;;;;;;6.35;2.28;;;20.90;54.60;;;;;;5014197;28;20044;-67
2022/02/07 01:04:16;;;;;;;5.40;2.13;;;20.90;54.60;;;;;;5013872;28;20107;-67
2022/02/07 01:06:42;;;;;;;6.35;2.45;;;20.90;54.60;;;;;;5031419;28;20076;-67
2022/02/07 01:09:20;;;;;;;4.57;2.28;;;20.90;54.70;;;;;;5014100;28;20076;-67
2022/02/07 01:12:01;;;;;;;5.63;2.53;;;20.90;54.70;;;;;;5031717;28;20104;-67
2022/02/07 01:17:50;;;;;;;4.32;2.30;;;20.90;54.80;;;;;;5035329;28;20033;-67
2022/02/07 01:47:19;;;;;;;4.28;2.08;;;20.90;55.10;;;;;;5019747;28;20446;-67
2022/02/07 01:49:55;;;;;;;5.35;2.17;;;20.90;55.10;;;;;;5034354;28;20025;-67
2022/02/07 01:55:00;;;;;;;3.20;1.60;;;20.90;55.10;;;;;;5017363;28;20029;-67
2022/02/07 01:57:26;;;;;;;6.25;2.10;;;20.90;55.10;;;;;;5018906;28;20053;-67
2022/02/07 01:59:51;;;;;;;7.45;2.05;;;20.90;55.10;;;;;;5034607;28;20049;-67
2022/02/07 02:02:17;;;;;;;4.28;2.10;;;20.90;55.10;;;;;;5016798;28;20037;-67
2022/02/07 02:04:43;;;;;;;5.60;2.17;;;20.90;55.10;;;;;;5034026;28;20029;-67
2022/02/07 02:07:08;;;;;;;5.20;1.88;;;20.90;55.10;;;;;;5000423;28;20030;-67
2022/02/07 02:09:34;;;;;;;3.97;1.88;;;20.90;55.10;;;;;;5000807;28;20100;-67
2022/02/07 02:12:02;;;;;;;6.50;2.22;;;20.90;55.10;;;;;;5034256;28;20028;-67
2022/02/07 02:38:53;;;;;;;4.55;1.60;;;20.90;55.30;;;;;;4943467;28;20034;-67
2022/02/07 02:46:50;;;;;;;2.08;1.27;;;20.90;55.30;;;;;;4851932;29;20067;-67
2022/02/07 02:49:15;;;;;;;4.03;1.90;;;20.90;55.30;;;;;;4877717;29;20070;-67
2022/02/07 02:51:41;;;;;;;3.70;1.55;;;20.90;55.30;;;;;;4877573;29;20064;-67
2022/02/07 02:54:06;;;;;;;3.30;1.45;;;20.90;55.30;;;;;;4862166;29;20032;-67
2022/02/07 02:56:33;;;;;;;2.95;1.50;;;20.90;55.30;;;;;;4877788;29;20040;-67
2022/02/07 02:58:59;;;;;;;3.65;1.75;;;20.90;55.30;;;;;;4886301;29;20050;-67
2022/02/07 03:01:24;;;;;;;5.28;1.80;;;20.90;55.30;;;;;;4917737;29;20039;-67
2022/02/07 03:03:50;;;;;;;4.28;1.60;;;20.90;55.40;;;;;;4920576;29;20061;-67
2022/02/07 03:06:16;;;;;;;4.50;1.70;;;20.90;55.30;;;;;;4953151;29;20102;-67
2022/02/07 03:08:42;;;;;;;4.43;1.40;;;20.90;55.30;;;;;;4937303;29;20110;-67
2022/02/07 03:11:20;;;;;;;4.25;1.73;;;20.90;55.30;;;;;;4937276;29;20494;-67
2022/02/07 03:18:57;;;;;;;4.88;1.77;;;20.90;55.40;;;;;;4939679;29;20058;-67
2022/02/07 03:21:23;;;;;;;3.75;1.42;;;20.90;55.40;;;;;;4936922;29;20114;-67
2022/02/07 03:23:48;;;;;;;2.97;1.40;;;20.90;55.40;;;;;;4980561;28;20037;-67
2022/02/07 03:26:17;;;;;;;4.70;1.65;;;20.90;55.40;;;;;;5013136;28;20026;-67
2022/02/07 03:28:43;;;;;;;3.05;1.42;;;20.90;55.50;;;;;;5013233;28;20464;-67
2022/02/07 03:31:09;;;;;;;6.15;1.30;;;20.90;55.40;;;;;;5011685;28;20021;-67
2022/02/07 03:33:36;;;;;;;2.90;1.40;;;20.90;55.50;;;;;;5013202;28;20026;-67
2022/02/07 03:36:02;;;;;;;3.22;1.52;;;20.90;55.40;;;;;;5012879;28;20021;-67
2022/02/07 03:38:27;;;;;;;2.20;1.00;;;20.90;55.40;;;;;;5012970;28;20022;-67
2022/02/07 03:40:53;;;;;;;3.20;1.30;;;20.90;55.50;;;;;;5011957;28;20477;-67
2022/02/07 03:43:18;;;;;;;3.65;1.50;;;20.90;55.50;;;;;;5012778;28;20048;-67
2022/02/07 03:45:44;;;;;;;2.75;1.38;;;20.90;55.50;;;;;;5012701;28;20037;-67
2022/02/07 03:48:10;;;;;;;5.13;1.67;;;20.90;55.60;;;;;;5012862;28;20021;-67
2022/02/07 03:50:35;;;;;;;3.67;1.70;;;20.90;55.50;;;;;;5012959;28;20022;-67
2022/02/07 03:53:01;;;;;;;2.13;1.33;;;20.90;55.50;;;;;;5012708;28;20034;-67
2022/02/07 03:55:27;;;;;;;3.97;1.35;;;20.90;55.50;;;;;;5012567;28;20018;-67
2022/02/07 03:57:53;;;;;;;3.58;1.50;;;20.90;55.50;;;;;;5012795;28;20057;-67
2022/02/07 04:00:18;;;;;;;3.55;1.30;;;20.90;55.60;;;;;;5014421;28;20021;-67
2022/02/07 04:02:48;;;;;;;3.70;1.55;;;20.90;55.60;;;;;;5032545;28;20025;-67
2022/02/07 04:07:59;;;;;;;3.30;1.30;;;20.90;55.60;;;;;;5032307;28;20032;-67
2022/02/07 04:10:26;;;;;;;4.15;1.42;;;20.90;55.60;;;;;;5014825;28;20064;-67
2022/02/07 04:12:58;;;;;;;4.43;1.63;;;20.90;55.60;;;;;;5032256;28;20071;-67
2022/02/07 04:15:23;;;;;;;2.38;1.30;;;20.90;55.70;;;;;;5031698;28;20051;-67
2022/02/07 04:17:56;;;;;;;3.22;1.67;;;20.90;55.60;;;;;;5032159;28;20473;-67
2022/02/07 04:20:21;;;;;;;3.65;1.10;;;20.90;55.70;;;;;;5031974;28;20025;-67
2022/02/07 04:22:47;;;;;;;2.78;1.35;;;20.90;55.70;;;;;;5032209;28;20430;-67
2022/02/07 04:25:13;;;;;;;3.25;1.40;;;20.90;55.70;;;;;;5014589;28;20104;-67
2022/02/07 04:27:38;;;;;;;1.95;1.00;;;20.90;55.70;;;;;;5032041;28;20105;-67
2022/02/07 04:30:05;;;;;;;2.75;1.30;;;20.90;55.70;;;;;;5014262;28;20022;-67
2022/02/07 04:32:31;;;;;;;1.88;1.08;;;20.90;55.70;;;;;;5014574;28;20018;-67
2022/02/07 04:34:57;;;;;;;2.78;1.30;;;20.90;55.70;;;;;;5014583;28;20547;-67
2022/02/07 04:37:22;;;;;;;2.65;1.55;;;20.90;55.70;;;;;;5031939;28;20029;-67
2022/02/07 04:39:49;;;;;;;3.33;1.30;;;20.90;55.80;;;;;;5014557;28;20021;-67
2022/02/07 04:42:15;;;;;;;2.80;1.30;;;20.90;55.80;;;;;;5031902;28;20029;-67
2022/02/07 04:44:52;;;;;;;2.72;1.23;;;20.90;55.80;;;;;;5013851;28;20395;-67
2022/02/07 04:55:46;;;;;;;1.30;0.98;;;20.90;55.90;;;;;;5035792;28;20022;-67
2022/02/07 05:02:58;;;;;;;1.85;1.00;;;20.90;56.00;;;;;;4998957;28;20185;-67
2022/02/07 05:16:03;;;;;;;2.17;1.10;;;20.90;56.00;;;;;;5015569;28;20048;-67
2022/02/07 05:18:30;;;;;;;2.65;1.20;;;20.90;56.00;;;;;;5015766;28;20036;-67
2022/02/07 05:20:57;;;;;;;1.77;0.82;;;20.90;56.00;;;;;;5014529;28;20024;-67
2022/02/07 05:23:22;;;;;;;1.52;0.80;;;20.90;56.00;;;;;;5014246;28;20061;-67
2022/02/07 05:25:48;;;;;;;1.50;1.08;;;20.90;56.00;;;;;;5014350;28;20059;-67
2022/02/07 05:28:14;;;;;;;2.10;1.23;;;20.90;56.00;;;;;;5013928;28;20041;-67
2022/02/07 05:30:39;;;;;;;1.70;0.90;;;20.90;56.00;;;;;;5014198;28;20030;-67
2022/02/07 05:33:05;;;;;;;2.60;1.10;;;20.90;56.00;;;;;;5015382;28;20053;-67
2022/02/07 05:35:31;;;;;;;1.98;0.90;;;20.90;56.00;;;;;;5014076;28;20484;-67
2022/02/07 05:37:56;;;;;;;9.63;1.13;;;20.90;56.00;;;;;;5015480;28;20033;-67
2022/02/07 05:40:40;;;;;;;2.35;1.02;;;20.90;56.00;;;;;;5013739;28;20109;-67
2022/02/07 05:43:08;;;;;;;1.55;0.85;;;20.90;56.00;;;;;;5015548;28;20049;-67
2022/02/07 05:45:33;;;;;;;1.58;0.82;;;20.90;56.00;;;;;;5013946;28;20519;-67
2022/02/07 05:47:59;;;;;;;1.35;1.02;;;20.90;56.00;;;;;;5014196;28;20046;-67
2022/02/07 05:50:24;;;;;;;1.60;0.80;;;20.90;56.00;;;;;;5014842;28;20514;-67
2022/02/07 05:52:50;;;;;;;1.90;1.02;;;20.90;56.00;;;;;;5014953;28;20471;-67
2022/02/07 05:55:16;;;;;;;1.50;0.90;;;20.90;56.00;;;;;;5013589;28;20033;-67
2022/02/07 05:57:41;;;;;;;1.95;1.00;;;20.90;56.00;;;;;;5013686;28;20026;-67
2022/02/07 06:00:08;;;;;;;2.15;1.10;;;20.90;56.00;;;;;;5021285;28;20037;-67
2022/02/07 06:02:33;;;;;;;1.30;0.90;;;20.90;56.00;;;;;;5016773;28;20029;-67
2022/02/07 06:04:59;;;;;;;1.90;1.10;;;20.90;56.00;;;;;;5016816;28;20099;-67
2022/02/07 06:07:25;;;;;;;2.17;1.08;;;20.90;56.00;;;;;;5016786;28;20027;-67
2022/02/07 06:09:50;;;;;;;1.80;0.85;;;20.90;56.00;;;;;;5034136;28;20026;-67
2022/02/07 06:12:16;;;;;;;1.73;1.00;;;20.90;56.00;;;;;;5034244;28;20037;-67
2022/02/07 06:14:42;;;;;;;2.15;0.80;;;20.90;56.00;;;;;;5033939;28;20120;-67
2022/02/07 06:17:07;;;;;;;2.33;1.02;;;20.90;56.00;;;;;;5016917;28;20036;-67
2022/02/07 06:19:33;;;;;;;1.17;0.70;;;20.90;56.00;;;;;;5016426;28;20029;-67
2022/02/07 06:21:58;;;;;;;1.30;1.05;;;20.90;56.00;;;;;;5000513;28;20112;-67
2022/02/07 06:24:24;;;;;;;1.30;0.90;;;20.90;56.00;;;;;;5033934;28;20022;-67
2022/02/07 06:26:50;;;;;;;2.13;1.00;;;20.90;56.00;;;;;;5016423;28;20491;-67
2022/02/07 06:29:15;;;;;;;2.13;0.85;;;20.90;56.10;;;;;;5034200;28;20021;-67
2022/02/07 06:31:41;;;;;;;1.30;0.75;;;20.90;56.10;;;;;;5034009;28;20029;-67
2022/02/07 06:34:08;;;;;;;1.98;1.02;;;20.90;56.20;;;;;;5016426;28;20406;-67
2022/02/07 06:36:34;;;;;;;2.58;0.80;;;20.90;56.10;;;;;;5033803;28;20029;-67
2022/02/07 06:38:59;;;;;;;1.20;0.90;;;20.90;56.20;;;;;;5015982;28;20029;-67
2022/02/07 06:41:25;;;;;;;1.75;0.75;;;20.90;56.20;;;;;;5016124;28;20033;-67
2022/02/07 06:43:51;;;;;;;1.73;1.00;;;20.90;56.20;;;;;;5016120;28;20476;-67
2022/02/07 06:46:16;;;;;;;2.63;1.10;;;20.90;56.20;;;;;;5011909;28;20496;-67
2022/02/07 06:48:42;;;;;;;1.77;0.82;;;20.90;56.20;;;;;;5020576;28;20388;-67
2022/02/07 06:51:08;;;;;;;2.08;0.70;;;20.90;56.20;;;;;;5004331;28;20049;-67
2022/02/07 06:53:34;;;;;;;1.40;0.80;;;20.90;56.20;;;;;;5007410;28;20010;-67
2022/02/07 06:55:59;;;;;;;2.03;0.85;;;20.90;56.30;;;;;;5007117;28;20112;-67
2022/02/07 06:58:25;;;;;;;2.60;1.10;;;20.90;56.30;;;;;;5026971;28;20112;-67
2022/02/07 07:00:51;;;;;;;2.05;0.80;;;20.90;56.20;;;;;;5027317;28;20487;-67
2022/02/07 07:03:19;;;;;;;1.77;0.75;;;20.90;57.30;;;;;;5015505;28;20044;-67
2022/02/07 07:05:47;;;;;;;0.77;0.52;;;20.90;56.30;;;;;;5032662;28;20120;-67
2022/02/07 07:08:13;;;;;;;1.65;0.90;;;20.90;56.20;;;;;;5015425;28;20013;-66
2022/02/07 07:10:38;;;;;;;1.70;0.80;;;20.90;56.30;;;;;;4999138;28;20024;-67
2022/02/07 07:13:11;;;;;;;0.85;0.50;;;20.80;55.70;;;;;;5032722;28;20017;-67
2022/02/07 07:15:43;;;;;;;0.82;0.80;;;20.70;55.40;;;;;;5032907;28;20049;-67
2022/02/07 07:18:09;;;;;;;1.20;0.73;;;20.70;55.50;;;;;;5033210;28;20503;-67
2022/02/07 07:20:35;;;;;;;2.33;0.75;;;20.60;55.70;;;;;;4999131;28;20060;-67
2022/02/07 07:23:02;;;;;;;1.35;0.80;;;20.50;55.60;;;;;;5015036;28;20049;-67
2022/02/07 07:25:29;;;;;;;0.90;0.45;;;20.50;55.60;;;;;;5032519;28;20501;-67
2022/02/07 07:27:59;;;;;;;1.08;0.60;;;20.50;55.70;;;;;;5032893;28;20052;-67
2022/02/07 07:30:28;;;;;;;4.32;0.80;;;20.40;56.60;;;;;;5015972;28;20018;-67
2022/02/07 07:32:58;;;;;;;3.03;0.82;;;20.40;55.60;;;;;;4999754;28;20104;-67
2022/02/07 07:35:24;;;;;;;2.67;0.90;;;20.40;55.70;;;;;;5000351;28;20076;-67
2022/02/07 07:37:50;;;;;;;2.25;0.82;;;20.40;55.70;;;;;;5032587;28;20030;-67
2022/02/07 07:40:15;;;;;;;5.93;1.33;;;20.40;55.70;;;;;;5014664;28;20025;-67
2022/02/07 07:42:44;;;;;;;6.30;1.52;;;20.40;55.70;;;;;;5032303;28;20026;-67
2022/02/07 07:45:11;;;;;;;9.38;1.75;;;20.40;55.70;;;;;;5015368;28;20115;-67
2022/02/07 07:47:36;;;;;;;9.88;1.48;;;20.40;55.70;;;;;;5014900;28;20100;-68
2022/02/07 07:52:46;;;;;;;9.02;1.70;;;20.30;55.70;;;;;;5032016;28;20116;-67
2022/02/07 08:03:09;;;;;;;5.15;1.52;;;20.20;55.60;;;;;;5014978;28;20562;-67
2022/02/07 08:08:19;;;;;;;7.50;1.98;;;20.20;55.70;;;;;;5024720;28;20018;-67
2022/02/07 08:10:59;;;;;;;9.07;1.73;;;20.20;55.70;;;;;;5012489;28;20018;-67
2022/02/07 08:13:28;;;;;;;3.72;1.42;;;20.20;55.80;;;;;;5012608;28;20028;-67
2022/02/07 08:15:53;;;;;;;8.82;1.67;;;20.10;55.70;;;;;;5013617;28;20053;-67
2022/02/07 08:18:19;;;;;;;5.65;1.67;;;20.10;55.60;;;;;;5014608;28;20494;-67
2022/02/07 08:20:45;;;;;;;5.28;1.40;;;20.10;55.60;;;;;;5014043;28;20029;-67
2022/02/07 08:23:11;;;;;;;5.13;1.40;;;20.10;55.60;;;;;;5032260;28;20053;-67
2022/02/07 08:25:37;;;;;;;4.32;1.60;;;20.10;55.60;;;;;;5031948;28;20026;-67
2022/02/07 08:28:02;;;;;;;10.15;1.75;;;20.10;55.60;;;;;;5014457;28;20021;-67
2022/02/07 08:30:28;;;;;;;6.72;1.85;;;20.10;55.60;;;;;;5014406;28;20022;-67
2022/02/07 08:32:54;;;;;;;6.65;1.88;;;20.10;55.60;;;;;;5013354;28;20020;-67
2022/02/07 08:35:21;;;;;;;5.00;1.58;;;20.10;55.70;;;;;;5012159;28;20037;-67
2022/02/07 08:37:49;;;;;;;6.50;1.60;;;20.10;55.70;;;;;;5012283;28;20072;-67
2022/02/07 08:40:14;;;;;;;4.82;1.70;;;20.10;55.60;;;;;;5012124;28;20030;-67
2022/02/07 08:42:40;;;;;;;4.05;1.38;;;20.00;55.60;;;;;;5012252;28;20035;-67
2022/02/07 08:45:06;;;;;;;5.07;1.58;;;20.00;55.60;;;;;;5012197;28;20040;-67
2022/02/07 08:47:32;;;;;;;6.95;1.48;;;20.00;55.60;;;;;;5012316;28;20388;-67
2022/02/07 08:49:58;;;;;;;5.75;1.33;;;20.00;55.60;;;;;;5011930;28;20030;-67
2022/02/07 08:52:24;;;;;;;4.32;1.45;;;20.00;55.70;;;;;;5021009;28;20087;-67
2022/02/07 08:54:51;;;;;;;4.45;1.48;;;20.00;55.70;;;;;;5013952;28;20080;-67
2022/02/07 08:57:31;;;;;;;5.05;1.25;;;20.00;55.70;;;;;;5032048;28;20442;-67
2022/02/07 09:05:17;;;;;;;5.53;1.42;;;20.00;55.70;;;;;;5015035;28;20029;-67
2022/02/07 09:07:49;;;;;;;5.78;1.10;;;20.00;55.70;;;;;;5016612;28;20402;-67
2022/02/07 09:10:15;;;;;;;2.95;1.40;;;20.00;55.80;;;;;;5031754;28;20025;-67
2022/02/07 09:12:43;;;;;;;3.00;1.10;;;19.90;55.70;;;;;;4997818;28;20391;-67
2022/02/07 09:17:54;;;;;;;3.28;1.15;;;20.00;55.80;;;;;;5012219;28;20033;-67
2022/02/07 09:20:20;;;;;;;3.25;1.00;;;19.90;55.70;;;;;;5010437;28;20068;-67
2022/02/07 09:22:47;;;;;;;3.03;1.20;;;19.90;55.80;;;;;;5011942;28;20053;-67
2022/02/07 09:25:13;;;;;;;2.55;1.48;;;19.90;55.70;;;;;;5012091;28;20026;-67
2022/02/07 09:27:39;;;;;;;2.92;1.40;;;19.90;55.80;;;;;;4994518;28;20022;-67
2022/02/07 09:30:06;;;;;;;2.80;1.00;;;19.90;55.70;;;;;;5011496;28;20028;-67
2022/02/07 09:32:35;;;;;;;3.45;1.13;;;19.90;55.70;;;;;;5011986;28;20072;-67
2022/02/07 09:35:01;;;;;;;2.53;1.10;;;19.90;55.80;;;;;;5011860;28;20030;-67
2022/02/07 09:37:26;;;;;;;2.95;1.40;;;19.90;55.70;;;;;;5015341;28;20029;-67
2022/02/07 09:39:52;;;;;;;5.30;1.63;;;19.90;55.80;;;;;;5015076;28;20030;-67
2022/02/07 09:42:18;;;;;;;2.80;1.00;;;19.90;55.70;;;;;;5015316;28;20026;-67
2022/02/07 09:44:49;;;;;;;3.30;1.25;;;19.90;55.80;;;;;;5013902;28;20053;-67
2022/02/07 09:47:15;;;;;;;3.38;1.20;;;19.90;55.70;;;;;;4998405;28;20097;-67
2022/02/07 09:49:42;;;;;;;5.95;1.30;;;19.90;55.80;;;;;;5013868;28;20441;-67
2022/02/07 09:52:09;;;;;;;3.22;1.08;;;19.90;55.70;;;;;;5013681;28;20041;-67
2022/02/07 09:54:35;;;;;;;2.33;1.10;;;19.90;55.80;;;;;;5015040;28;20480;-67
2022/02/07 09:57:01;;;;;;;2.92;1.08;;;19.90;55.80;;;;;;5014909;28;20030;-67
2022/02/07 09:59:29;;;;;;;3.67;1.30;;;19.90;55.80;;;;;;4997621;28;20125;-67
2022/02/07 10:01:57;;;;;;;2.47;0.98;;;19.90;55.80;;;;;;5014554;28;20026;-67
2022/02/07 10:04:28;;;;;;;3.15;1.00;;;19.90;55.70;;;;;;5014729;28;20030;-67
2022/02/07 10:07:04;;;;;;;3.85;1.17;;;19.90;55.80;;;;;;4997634;28;20018;-67
2022/02/07 10:12:07;;;;;;;3.45;1.30;;;19.90;55.80;;;;;;4993837;28;20021;-67
2022/02/07 10:17:28;;;;;;;4.78;1.15;;;19.80;55.80;;;;;;4999713;28;20062;-67
2022/02/07 10:41:39;;;;;;;4.07;1.08;;;19.80;55.80;;;;;;4997324;28;20116;-67
2022/02/07 10:44:34;;;;;;;2.83;0.80;;;19.80;55.80;;;;;;4997287;28;20030;-67
2022/02/07 10:47:07;;;;;;;3.38;1.30;;;19.80;55.80;;;;;;5012460;28;20099;-67
2022/02/07 10:49:32;;;;;;;3.05;1.25;;;19.80;55.90;;;;;;4997544;28;20014;-67
2022/02/07 10:51:59;;;;;;;3.25;1.33;;;19.80;55.90;;;;;;5019147;28;20032;-67
2022/02/07 10:54:24;;;;;;;1.35;0.90;;;19.80;55.90;;;;;;5033617;28;20048;-67
2022/02/07 10:56:51;;;;;;;1.58;0.80;;;19.80;55.90;;;;;;5015893;28;20061;-68
2022/02/07 10:59:18;;;;;;;1.95;1.08;;;19.80;55.80;;;;;;5016108;28;20068;-67
2022/02/07 11:04:16;;;;;;;2.28;0.80;;;19.80;55.90;;;;;;5015765;28;20021;-67
2022/02/07 11:06:44;;;;;;;2.25;0.88;;;19.80;55.80;;;;;;5016435;28;20028;-68
2022/02/07 11:09:34;;;;;;;2.47;0.90;;;19.80;55.80;;;;;;5016017;28;20052;-67
2022/02/07 11:17:59;;;;;;;2.33;0.82;;;19.80;55.90;;;;;;4972436;28;20031;-67
2022/02/07 11:28:25;;;;;;;1.88;1.08;;;19.80;55.90;;;;;;4971892;28;20018;-67
2022/02/07 11:30:59;;;;;;;1.33;0.90;;;19.80;55.80;;;;;;4971787;28;20420;-67
2022/02/07 11:33:52;;;;;;;2.95;1.10;;;19.80;55.80;;;;;;4971999;28;20070;-67
2022/02/07 11:36:22;;;;;;;2.13;1.10;;;19.90;55.80;;;;;;4971559;28;20489;-67
2022/02/07 11:38:55;;;;;;;2.22;1.00;;;19.80;55.90;;;;;;4972045;28;20045;-67
2022/02/07 11:41:21;;;;;;;2.75;1.13;;;19.80;55.80;;;;;;4971678;28;20508;-67
2022/02/07 11:43:47;;;;;;;3.55;0.80;;;19.80;55.90;;;;;;4971688;28;20042;-67
2022/02/07 11:46:13;;;;;;;1.02;0.70;;;19.80;55.90;;;;;;5001476;28;20112;-67
2022/02/07 11:48:43;;;;;;;0.98;0.77;;;19.80;55.90;;;;;;5032900;28;20120;-67
2022/02/07 11:51:19;;;;;;;2.00;0.73;;;19.80;55.80;;;;;;5015587;28;20025;-67
2022/02/07 11:53:51;;;;;;;1.95;0.95;;;19.80;55.90;;;;;;4995565;28;20040;-67
2022/02/07 11:56:37;;;;;;;0.90;0.70;;;19.80;55.80;;;;;;4995353;28;20032;-67
2022/02/07 11:59:10;;;;;;;2.08;0.80;;;19.80;55.80;;;;;;5012086;28;20030;-67
2022/02/07 12:01:47;;;;;;;0.93;0.63;;;19.80;55.90;;;;;;5012979;28;20107;-67
2022/02/07 12:04:28;;;;;;;1.98;0.80;;;19.90;55.80;;;;;;5012621;28;20042;-67
2022/02/07 12:07:21;;;;;;;2.05;0.90;;;19.80;55.80;;;;;;4996184;28;20093;-67
2022/02/07 12:10:01;;;;;;;0.70;0.60;;;19.80;55.80;;;;;;5012711;28;20029;-68
2022/02/07 12:12:47;;;;;;;1.27;0.88;;;19.80;55.90;;;;;;5012463;28;20029;-67
2022/02/07 12:15:13;;;;;;;2.53;1.23;;;19.80;55.80;;;;;;5012364;28;20053;-67
2022/02/07 12:17:43;;;;;;;1.25;0.77;;;19.80;55.90;;;;;;5012653;28;20022;-67
2022/02/07 12:20:10;;;;;;;2.08;0.90;;;19.80;55.80;;;;;;5012443;28;20105;-67
2022/02/07 12:22:51;;;;;;;1.02;0.70;;;19.80;55.80;;;;;;5011294;28;20026;-67
2022/02/07 12:25:37;;;;;;;0.93;0.70;;;19.80;55.80;;;;;;5012534;28;20100;-67
2022/02/07 12:28:06;;;;;;;2.22;0.68;;;19.80;55.70;;;;;;5012019;28;20029;-67
2022/02/07 12:30:44;;;;;;;0.95;0.75;;;19.80;55.90;;;;;;5012575;28;20109;-67
2022/02/07 12:33:10;;;;;;;1.35;0.82;;;19.80;55.80;;;;;;5012321;28;20056;-67
2022/02/07 12:35:36;;;;;;;1.92;0.70;;;19.80;55.80;;;;;;5012393;28;20122;-67
2022/02/07 12:38:01;;;;;;;0.90;0.55;;;19.80;55.80;;;;;;5011170;28;20053;-67
2022/02/07 12:40:27;;;;;;;0.80;0.80;;;19.80;55.80;;;;;;5011139;28;20038;-67
2022/02/07 12:42:54;;;;;;;1.48;0.80;;;19.80;55.80;;;;;;4994373;28;20044;-67
2022/02/07 12:45:25;;;;;;;1.38;0.80;;;19.90;55.80;;;;;;5012267;28;20025;-67
2022/02/07 12:47:56;;;;;;;0.70;0.70;;;19.80;56.80;;;;;;5011262;28;20026;-67
2022/02/07 12:50:23;;;;;;;1.63;0.70;;;19.80;55.80;;;;;;5012326;28;20085;-67
2022/02/07 12:52:49;;;;;;;0.70;0.68;;;19.80;55.80;;;;;;5014234;28;20116;-67
2022/02/07 12:55:16;;;;;;;0.88;0.60;;;19.90;55.80;;;;;;5014212;28;20510;-67
2022/02/07 12:57:42;;;;;;;0.93;0.52;;;19.90;55.80;;;;;;5014273;28;20518;-67
2022/02/07 13:00:15;;;;;;;0.65;0.55;;;19.90;55.80;;;;;;5014289;28;20025;-67
2022/02/07 13:02:42;;;;;;;2.33;0.82;;;19.90;55.80;;;;;;5031940;28;20025;-67
2022/02/07 13:05:12;;;;;;;0.88;0.55;;;19.80;55.70;;;;;;5014416;28;20021;-67
2022/02/07 13:07:43;;;;;;;1.67;0.73;;;19.90;55.80;;;;;;5008281;28;20018;-67
2022/02/07 13:10:12;;;;;;;1.35;0.80;;;19.80;55.70;;;;;;4980250;28;20392;-67
2022/02/07 13:13:07;;;;;;;0.80;0.50;;;19.90;55.80;;;;;;5015954;28;20026;-67
2022/02/07 13:15:35;;;;;;;0.88;0.68;;;19.80;55.80;;;;;;5001859;28;20054;-67
2022/02/07 13:18:06;;;;;;;1.45;0.80;;;19.90;55.90;;;;;;4998551;28;20038;-67
2022/02/07 13:20:32;;;;;;;0.57;0.52;;;19.90;55.80;;;;;;5015781;28;20022;-68
2022/02/07 13:23:17;;;;;;;1.95;0.60;;;19.80;55.80;;;;;;4998235;28;20109;-67
2022/02/07 13:25:48;;;;;;;1.20;0.82;;;19.90;55.70;;;;;;4997768;28;20025;-67
2022/02/07 13:28:15;;;;;;;1.50;0.95;;;19.90;55.80;;;;;;4998317;28;20018;-67
2022/02/07 13:30:42;;;;;;;1.13;0.90;;;19.90;55.80;;;;;;5015569;28;20018;-67
2022/02/07 13:33:07;;;;;;;1.10;0.70;;;19.90;55.80;;;;;;4997805;28;20022;-67
2022/02/07 13:35:45;;;;;;;0.73;0.55;;;19.90;55.80;;;;;;4998100;28;20394;-67
2022/02/07 13:38:13;;;;;;;1.20;0.70;;;19.90;55.80;;;;;;4998908;28;20108;-67
2022/02/07 13:40:43;;;;;;;0.52;0.50;;;19.90;55.80;;;;;;4997611;28;20045;-67
2022/02/07 13:43:11;;;;;;;0.80;0.52;;;19.90;55.80;;;;;;5015163;28;20021;-67
2022/02/07 13:45:37;;;;;;;0.75;0.50;;;19.90;55.80;;;;;;4997516;28;20109;-67
2022/02/07 13:48:03;;;;;;;1.27;0.60;;;19.90;55.80;;;;;;4997768;28;20101;-67
2022/02/07 13:50:30;;;;;;;0.80;0.50;;;19.90;55.80;;;;;;5015199;28;20022;-67
2022/02/07 13:52:58;;;;;;;0.98;0.60;;;19.90;55.80;;;;;;5028215;28;20061;-67
2022/02/07 13:55:28;;;;;;;0.95;0.52;;;19.90;55.80;;;;;;5017137;28;20507;-67
2022/02/07 13:58:07;;;;;;;0.93;0.47;;;19.90;55.70;;;;;;5034870;28;20053;-67
2022/02/07 14:00:53;;;;;;;1.10;0.50;;;20.00;55.70;;;;;;5017063;28;20021;-67
2022/02/07 14:03:25;;;;;;;1.25;0.50;;;20.00;55.60;;;;;;5017095;28;20129;-67
2022/02/07 14:06:06;;;;;;;0.88;0.40;;;19.90;55.70;;;;;;5017523;28;20068;-67
2022/02/07 14:08:50;;;;;;;1.67;0.60;;;20.00;55.80;;;;;;5017347;28;20032;-67
2022/02/07 14:11:26;;;;;;;0.73;0.70;;;19.90;56.80;;;;;;5034393;28;20557;-67
2022/02/07 14:13:53;;;;;;;0.40;0.40;;;19.90;55.80;;;;;;5018466;28;20053;-67
2022/02/07 14:16:21;;;;;;;0.60;0.52;;;20.00;55.90;;;;;;5016608;28;20056;-67
2022/02/07 14:18:48;;;;;;;1.00;0.60;;;19.90;55.80;;;;;;5017359;28;20036;-67
2022/02/07 14:21:15;;;;;;;0.52;0.50;;;20.00;55.80;;;;;;5016574;28;20052;-67
2022/02/07 14:23:45;;;;;;;0.63;0.50;;;20.00;55.80;;;;;;5016450;28;20036;-67
2022/02/07 14:26:15;;;;;;;0.77;0.50;;;20.00;55.80;;;;;;5016793;28;20503;-68
2022/02/07 14:28:41;;;;;;;1.48;0.68;;;20.00;55.80;;;;;;5017163;28;20024;-67
2022/02/07 14:31:10;;;;;;;0.63;0.40;;;20.00;55.80;;;;;;5034343;28;20104;-67
2022/02/07 14:33:36;;;;;;;0.65;0.50;;;20.00;55.80;;;;;;5034007;28;20025;-67
2022/02/07 14:36:01;;;;;;;1.33;0.68;;;20.00;55.80;;;;;;5016744;28;20025;-67
2022/02/07 14:38:27;;;;;;;0.80;0.47;;;20.00;55.80;;;;;;5033655;28;20028;-67
2022/02/07 14:40:53;;;;;;;0.50;0.30;;;20.00;55.80;;;;;;5033837;28;20025;-67
2022/02/07 14:43:27;;;;;;;0.80;0.40;;;20.00;55.80;;;;;;5016424;28;20029;-67
2022/02/07 14:46:06;;;;;;;0.77;0.47;;;20.00;55.80;;;;;;5033811;28;20064;-67
2022/02/07 14:48:37;;;;;;;1.48;0.73;;;20.00;55.80;;;;;;5033850;28;20017;-67
2022/02/07 14:51:06;;;;;;;0.55;0.50;;;20.00;55.80;;;;;;5016581;28;20034;-67
2022/02/07 14:53:35;;;;;;;0.85;0.40;;;20.00;55.80;;;;;;5015873;28;20021;-68
2022/02/07 14:56:01;;;;;;;0.52;0.47;;;20.00;55.80;;;;;;5016087;28;20403;-67
2022/02/07 14:58:27;;;;;;;0.63;0.38;;;20.00;55.80;;;;;;5015977;28;20495;-67
2022/02/07 15:00:54;;;;;;;0.70;0.55;;;20.00;55.80;;;;;;5033482;28;20159;-67
2022/02/07 15:03:20;;;;;;;1.00;0.50;;;20.00;55.80;;;;;;5033594;28;20052;-67
2022/02/07 15:05:47;;;;;;;0.55;0.30;;;20.00;55.80;;;;;;5033399;28;20030;-67
2022/02/07 15:08:12;;;;;;;0.40;0.30;;;20.00;55.80;;;;;;5015452;28;20017;-67
2022/02/07 15:10:38;;;;;;;0.38;0.38;;;20.00;55.80;;;;;;5015801;28;20035;-67
2022/02/07 15:13:04;;;;;;;0.43;0.32;;;20.00;55.80;;;;;;5033571;28;20028;-67
2022/02/07 15:15:30;;;;;;;0.40;0.40;;;20.00;55.70;;;;;;5032955;28;20080;-67
2022/02/07 15:17:58;;;;;;;0.50;0.40;;;20.00;55.80;;;;;;5015949;28;20065;-67
2022/02/07 15:20:23;;;;;;;0.93;0.40;;;20.00;55.80;;;;;;5015768;28;20017;-67
2022/02/07 15:22:50;;;;;;;1.90;0.57;;;20.00;55.80;;;;;;5032921;28;20200;-67
2022/02/07 15:25:27;;;;;;;0.45;0.40;;;20.00;55.80;;;;;;5015502;28;20022;-67
2022/02/07 15:27:53;;;;;;;0.35;0.30;;;20.00;55.80;;;;;;5033251;28;20437;-67
2022/02/07 15:30:19;;;;;;;0.90;0.40;;;20.00;55.80;;;;;;5033097;28;20029;-67
2022/02/07 15:32:48;;;;;;;1.30;0.40;;;20.00;55.80;;;;;;5014875;28;20025;-67